sensor_id;sensor_type;location;lat;lon;timestamp;P1;durP1;ratioP1;P2;durP2;ratioP2
17361;SDS011;8798;51.938;4.348;2024-02-04T00:00:13;14.43;;;4.20;;
17361;SDS011;8798;51.938;4.348;2024-02-04T00:02:43;22.80;;;5.30;;
17361;SDS011;8798;51.938;4.348;2024-02-04T00:05:11;12.60;;;5.00;;
17361;SDS011;8798;51.938;4.348;2024-02-04T00:07:39;19.27;;;4.47;;
17361;SDS011;8798;51.938;4.348;2024-02-04T00:10:07;18.23;;;4.70;;
17361;SDS011;8798;51.938;4.348;2024-02-04T00:12:36;16.20;;;5.00;;
17361;SDS011;8798;51.938;4.348;2024-02-04T00:15:06;17.30;;;4.43;;
17361;SDS011;8798;51.938;4.348;2024-02-04T00:17:34;26.60;;;5.67;;
17361;SDS011;8798;51.938;4.348;2024-02-04T00:20:03;25.07;;;5.33;;
17361;SDS011;8798;51.938;4.348;2024-02-04T00:22:32;13.57;;;4.33;;
17361;SDS011;8798;51.938;4.348;2024-02-04T00:25:01;18.03;;;5.10;;
17361;SDS011;8798;51.938;4.348;2024-02-04T00:27:31;16.77;;;4.73;;
17361;SDS011;8798;51.938;4.348;2024-02-04T00:29:59;16.50;;;4.70;;
17361;SDS011;8798;51.938;4.348;2024-02-04T00:32:29;18.37;;;4.63;;
17361;SDS011;8798;51.938;4.348;2024-02-04T00:34:57;15.00;;;4.83;;
17361;SDS011;8798;51.938;4.348;2024-02-04T00:37:25;21.47;;;5.20;;
17361;SDS011;8798;51.938;4.348;2024-02-04T00:39:53;16.97;;;4.63;;
17361;SDS011;8798;51.938;4.348;2024-02-04T00:42:21;14.30;;;4.80;;
17361;SDS011;8798;51.938;4.348;2024-02-04T00:44:49;18.80;;;4.80;;
17361;SDS011;8798;51.938;4.348;2024-02-04T00:47:17;14.47;;;4.30;;
17361;SDS011;8798;51.938;4.348;2024-02-04T00:49:46;12.70;;;4.40;;
17361;SDS011;8798;51.938;4.348;2024-02-04T00:52:14;17.07;;;5.27;;
17361;SDS011;8798;51.938;4.348;2024-02-04T00:54:42;15.37;;;4.80;;
17361;SDS011;8798;51.938;4.348;2024-02-04T00:57:10;14.93;;;4.10;;
17361;SDS011;8798;51.938;4.348;2024-02-04T00:59:38;12.23;;;4.50;;
17361;SDS011;8798;51.938;4.348;2024-02-04T01:02:06;15.33;;;4.03;;
17361;SDS011;8798;51.938;4.348;2024-02-04T01:04:34;14.40;;;4.57;;
17361;SDS011;8798;51.938;4.348;2024-02-04T01:07:03;11.30;;;4.17;;
17361;SDS011;8798;51.938;4.348;2024-02-04T01:09:31;13.03;;;4.10;;
17361;SDS011;8798;51.938;4.348;2024-02-04T01:11:59;14.73;;;4.67;;
17361;SDS011;8798;51.938;4.348;2024-02-04T01:14:27;14.80;;;4.00;;
17361;SDS011;8798;51.938;4.348;2024-02-04T01:16:55;13.67;;;4.20;;
17361;SDS011;8798;51.938;4.348;2024-02-04T01:19:23;12.30;;;3.80;;
17361;SDS011;8798;51.938;4.348;2024-02-04T01:21:51;14.20;;;4.57;;
17361;SDS011;8798;51.938;4.348;2024-02-04T01:24:20;14.07;;;3.70;;
17361;SDS011;8798;51.938;4.348;2024-02-04T01:26:48;7.57;;;3.37;;
17361;SDS011;8798;51.938;4.348;2024-02-04T01:29:16;13.23;;;3.73;;
17361;SDS011;8798;51.938;4.348;2024-02-04T01:31:44;11.37;;;3.80;;
17361;SDS011;8798;51.938;4.348;2024-02-04T01:34:12;11.50;;;3.77;;
17361;SDS011;8798;51.938;4.348;2024-02-04T01:36:41;10.17;;;3.73;;
17361;SDS011;8798;51.938;4.348;2024-02-04T01:39:09;7.33;;;3.63;;
17361;SDS011;8798;51.938;4.348;2024-02-04T01:41:39;11.17;;;3.60;;
17361;SDS011;8798;51.938;4.348;2024-02-04T01:44:07;12.97;;;3.43;;
17361;SDS011;8798;51.938;4.348;2024-02-04T01:46:35;11.73;;;3.20;;
17361;SDS011;8798;51.938;4.348;2024-02-04T01:49:03;17.13;;;3.30;;
17361;SDS011;8798;51.938;4.348;2024-02-04T01:51:31;9.60;;;3.17;;
17361;SDS011;8798;51.938;4.348;2024-02-04T01:54:00;14.10;;;3.67;;
17361;SDS011;8798;51.938;4.348;2024-02-04T01:56:28;12.33;;;3.87;;
17361;SDS011;8798;51.938;4.348;2024-02-04T01:58:59;15.53;;;3.93;;
17361;SDS011;8798;51.938;4.348;2024-02-04T02:01:27;10.10;;;3.40;;
17361;SDS011;8798;51.938;4.348;2024-02-04T02:03:55;8.97;;;3.93;;
17361;SDS011;8798;51.938;4.348;2024-02-04T02:06:23;10.93;;;3.43;;
17361;SDS011;8798;51.938;4.348;2024-02-04T02:08:53;10.73;;;3.57;;
17361;SDS011;8798;51.938;4.348;2024-02-04T02:11:27;12.40;;;4.03;;
17361;SDS011;8798;51.938;4.348;2024-02-04T02:14:08;9.57;;;3.30;;
17361;SDS011;8798;51.938;4.348;2024-02-04T02:16:41;9.20;;;3.33;;
17361;SDS011;8798;51.938;4.348;2024-02-04T02:19:14;12.57;;;4.10;;
17361;SDS011;8798;51.938;4.348;2024-02-04T02:21:56;13.20;;;3.80;;
17361;SDS011;8798;51.938;4.348;2024-02-04T02:24:32;10.00;;;3.40;;
17361;SDS011;8798;51.938;4.348;2024-02-04T02:27:01;11.83;;;3.80;;
17361;SDS011;8798;51.938;4.348;2024-02-04T02:29:32;10.83;;;3.13;;
17361;SDS011;8798;51.938;4.348;2024-02-04T02:32:03;9.37;;;2.90;;
17361;SDS011;8798;51.938;4.348;2024-02-04T02:34:32;9.23;;;3.27;;
17361;SDS011;8798;51.938;4.348;2024-02-04T02:37:08;9.93;;;2.93;;
17361;SDS011;8798;51.938;4.348;2024-02-04T02:39:48;12.60;;;3.57;;
17361;SDS011;8798;51.938;4.348;2024-02-04T02:42:18;11.43;;;3.70;;
17361;SDS011;8798;51.938;4.348;2024-02-04T02:44:49;10.00;;;3.67;;
17361;SDS011;8798;51.938;4.348;2024-02-04T02:47:20;11.23;;;3.67;;
17361;SDS011;8798;51.938;4.348;2024-02-04T02:49:50;14.43;;;3.10;;
17361;SDS011;8798;51.938;4.348;2024-02-04T02:52:19;9.90;;;2.83;;
17361;SDS011;8798;51.938;4.348;2024-02-04T02:54:48;8.53;;;2.93;;
17361;SDS011;8798;51.938;4.348;2024-02-04T02:57:17;8.67;;;3.00;;
17361;SDS011;8798;51.938;4.348;2024-02-04T02:59:44;7.83;;;2.70;;
17361;SDS011;8798;51.938;4.348;2024-02-04T03:02:12;8.63;;;3.53;;
17361;SDS011;8798;51.938;4.348;2024-02-04T03:04:41;9.27;;;3.17;;
17361;SDS011;8798;51.938;4.348;2024-02-04T03:07:09;9.23;;;2.87;;
17361;SDS011;8798;51.938;4.348;2024-02-04T03:09:37;9.00;;;3.30;;
17361;SDS011;8798;51.938;4.348;2024-02-04T03:12:06;12.57;;;3.20;;
17361;SDS011;8798;51.938;4.348;2024-02-04T03:14:34;11.63;;;3.50;;
17361;SDS011;8798;51.938;4.348;2024-02-04T03:17:02;10.27;;;3.10;;
17361;SDS011;8798;51.938;4.348;2024-02-04T03:19:30;11.73;;;3.50;;
17361;SDS011;8798;51.938;4.348;2024-02-04T03:21:58;17.60;;;4.20;;
17361;SDS011;8798;51.938;4.348;2024-02-04T03:24:26;13.30;;;3.10;;
17361;SDS011;8798;51.938;4.348;2024-02-04T03:26:54;12.60;;;2.97;;
17361;SDS011;8798;51.938;4.348;2024-02-04T03:29:23;9.47;;;2.90;;
17361;SDS011;8798;51.938;4.348;2024-02-04T03:31:51;16.53;;;3.50;;
17361;SDS011;8798;51.938;4.348;2024-02-04T03:34:19;11.47;;;3.30;;
17361;SDS011;8798;51.938;4.348;2024-02-04T03:36:48;10.13;;;3.00;;
17361;SDS011;8798;51.938;4.348;2024-02-04T03:39:16;10.40;;;3.57;;
17361;SDS011;8798;51.938;4.348;2024-02-04T03:41:44;11.50;;;3.70;;
17361;SDS011;8798;51.938;4.348;2024-02-04T03:44:12;9.70;;;3.20;;
17361;SDS011;8798;51.938;4.348;2024-02-04T03:46:41;8.83;;;3.20;;
17361;SDS011;8798;51.938;4.348;2024-02-04T03:49:09;15.83;;;3.63;;
17361;SDS011;8798;51.938;4.348;2024-02-04T03:51:37;13.23;;;3.63;;
17361;SDS011;8798;51.938;4.348;2024-02-04T03:54:05;9.77;;;3.20;;
17361;SDS011;8798;51.938;4.348;2024-02-04T03:56:33;10.37;;;3.23;;
17361;SDS011;8798;51.938;4.348;2024-02-04T03:59:01;8.67;;;3.50;;
17361;SDS011;8798;51.938;4.348;2024-02-04T04:01:29;11.63;;;3.33;;
17361;SDS011;8798;51.938;4.348;2024-02-04T04:03:58;8.63;;;2.83;;
17361;SDS011;8798;51.938;4.348;2024-02-04T04:06:26;15.07;;;3.63;;
17361;SDS011;8798;51.938;4.348;2024-02-04T04:08:55;16.33;;;3.43;;
17361;SDS011;8798;51.938;4.348;2024-02-04T04:11:25;12.33;;;3.87;;
17361;SDS011;8798;51.938;4.348;2024-02-04T04:13:53;8.10;;;3.00;;
17361;SDS011;8798;51.938;4.348;2024-02-04T04:16:21;11.23;;;3.23;;
17361;SDS011;8798;51.938;4.348;2024-02-04T04:18:49;11.07;;;3.30;;
17361;SDS011;8798;51.938;4.348;2024-02-04T04:21:19;13.80;;;2.87;;
17361;SDS011;8798;51.938;4.348;2024-02-04T04:23:47;8.03;;;2.57;;
17361;SDS011;8798;51.938;4.348;2024-02-04T04:26:14;12.93;;;2.80;;
17361;SDS011;8798;51.938;4.348;2024-02-04T04:28:42;14.33;;;3.30;;
17361;SDS011;8798;51.938;4.348;2024-02-04T04:31:10;11.70;;;2.83;;
17361;SDS011;8798;51.938;4.348;2024-02-04T04:33:38;9.20;;;2.57;;
17361;SDS011;8798;51.938;4.348;2024-02-04T04:36:07;12.03;;;2.77;;
17361;SDS011;8798;51.938;4.348;2024-02-04T04:38:36;9.47;;;3.10;;
17361;SDS011;8798;51.938;4.348;2024-02-04T04:41:04;9.33;;;3.10;;
17361;SDS011;8798;51.938;4.348;2024-02-04T04:43:36;10.63;;;2.97;;
17361;SDS011;8798;51.938;4.348;2024-02-04T04:46:04;10.00;;;2.80;;
17361;SDS011;8798;51.938;4.348;2024-02-04T04:48:32;7.03;;;2.40;;
17361;SDS011;8798;51.938;4.348;2024-02-04T04:51:00;11.53;;;3.00;;
17361;SDS011;8798;51.938;4.348;2024-02-04T04:53:28;11.90;;;2.57;;
17361;SDS011;8798;51.938;4.348;2024-02-04T04:55:57;9.03;;;2.53;;
17361;SDS011;8798;51.938;4.348;2024-02-04T04:58:25;7.73;;;2.40;;
17361;SDS011;8798;51.938;4.348;2024-02-04T05:00:53;10.57;;;2.17;;
17361;SDS011;8798;51.938;4.348;2024-02-04T05:03:21;8.90;;;2.40;;
17361;SDS011;8798;51.938;4.348;2024-02-04T05:05:49;9.67;;;2.73;;
17361;SDS011;8798;51.938;4.348;2024-02-04T05:08:17;9.13;;;2.40;;
17361;SDS011;8798;51.938;4.348;2024-02-04T05:10:45;4.87;;;2.40;;
17361;SDS011;8798;51.938;4.348;2024-02-04T05:13:14;7.70;;;2.30;;
17361;SDS011;8798;51.938;4.348;2024-02-04T05:15:42;7.30;;;2.27;;
17361;SDS011;8798;51.938;4.348;2024-02-04T05:18:10;12.83;;;3.00;;
17361;SDS011;8798;51.938;4.348;2024-02-04T05:20:38;7.13;;;2.20;;
17361;SDS011;8798;51.938;4.348;2024-02-04T05:23:06;10.40;;;2.13;;
17361;SDS011;8798;51.938;4.348;2024-02-04T05:25:34;10.87;;;3.07;;
17361;SDS011;8798;51.938;4.348;2024-02-04T05:28:02;9.73;;;2.30;;
17361;SDS011;8798;51.938;4.348;2024-02-04T05:30:32;10.23;;;2.63;;
17361;SDS011;8798;51.938;4.348;2024-02-04T05:33:00;8.80;;;2.43;;
17361;SDS011;8798;51.938;4.348;2024-02-04T05:35:28;9.70;;;2.73;;
17361;SDS011;8798;51.938;4.348;2024-02-04T05:37:56;7.40;;;2.80;;
17361;SDS011;8798;51.938;4.348;2024-02-04T05:40:23;6.60;;;2.70;;
17361;SDS011;8798;51.938;4.348;2024-02-04T05:42:54;8.90;;;2.57;;
17361;SDS011;8798;51.938;4.348;2024-02-04T05:45:34;11.33;;;3.33;;
17361;SDS011;8798;51.938;4.348;2024-02-04T05:48:18;7.90;;;2.50;;
17361;SDS011;8798;51.938;4.348;2024-02-04T05:50:46;7.70;;;2.97;;
17361;SDS011;8798;51.938;4.348;2024-02-04T05:53:14;15.53;;;3.00;;
17361;SDS011;8798;51.938;4.348;2024-02-04T05:55:42;9.60;;;2.83;;
17361;SDS011;8798;51.938;4.348;2024-02-04T05:58:10;6.57;;;2.80;;
17361;SDS011;8798;51.938;4.348;2024-02-04T06:00:41;7.67;;;2.90;;
17361;SDS011;8798;51.938;4.348;2024-02-04T06:03:09;11.40;;;2.83;;
17361;SDS011;8798;51.938;4.348;2024-02-04T06:05:37;10.70;;;3.20;;
17361;SDS011;8798;51.938;4.348;2024-02-04T06:08:05;8.37;;;3.03;;
17361;SDS011;8798;51.938;4.348;2024-02-04T06:10:33;8.20;;;2.90;;
17361;SDS011;8798;51.938;4.348;2024-02-04T06:13:01;11.67;;;2.90;;
17361;SDS011;8798;51.938;4.348;2024-02-04T06:15:30;6.40;;;2.70;;
17361;SDS011;8798;51.938;4.348;2024-02-04T06:17:59;8.70;;;3.10;;
17361;SDS011;8798;51.938;4.348;2024-02-04T06:20:27;11.60;;;2.87;;
17361;SDS011;8798;51.938;4.348;2024-02-04T06:22:55;9.77;;;2.90;;
17361;SDS011;8798;51.938;4.348;2024-02-04T06:25:24;16.60;;;3.73;;
17361;SDS011;8798;51.938;4.348;2024-02-04T06:27:52;13.50;;;3.30;;
17361;SDS011;8798;51.938;4.348;2024-02-04T06:30:20;10.23;;;3.03;;
17361;SDS011;8798;51.938;4.348;2024-02-04T06:32:48;10.67;;;3.13;;
17361;SDS011;8798;51.938;4.348;2024-02-04T06:35:18;14.50;;;3.87;;
17361;SDS011;8798;51.938;4.348;2024-02-04T06:37:46;7.73;;;2.77;;
17361;SDS011;8798;51.938;4.348;2024-02-04T06:40:14;16.70;;;3.47;;
17361;SDS011;8798;51.938;4.348;2024-02-04T06:42:42;17.60;;;3.30;;
17361;SDS011;8798;51.938;4.348;2024-02-04T06:45:10;11.03;;;3.47;;
17361;SDS011;8798;51.938;4.348;2024-02-04T06:47:38;12.47;;;3.60;;
17361;SDS011;8798;51.938;4.348;2024-02-04T06:50:07;9.47;;;2.40;;
17361;SDS011;8798;51.938;4.348;2024-02-04T06:52:41;12.40;;;3.27;;
17361;SDS011;8798;51.938;4.348;2024-02-04T06:55:10;11.53;;;3.17;;
17361;SDS011;8798;51.938;4.348;2024-02-04T06:57:38;7.17;;;2.70;;
17361;SDS011;8798;51.938;4.348;2024-02-04T07:00:06;11.80;;;2.83;;
17361;SDS011;8798;51.938;4.348;2024-02-04T07:02:35;13.27;;;2.73;;
17361;SDS011;8798;51.938;4.348;2024-02-04T07:05:06;9.70;;;2.67;;
17361;SDS011;8798;51.938;4.348;2024-02-04T07:07:41;9.60;;;2.50;;
17361;SDS011;8798;51.938;4.348;2024-02-04T07:10:09;8.70;;;2.43;;
17361;SDS011;8798;51.938;4.348;2024-02-04T07:12:37;10.73;;;2.90;;
17361;SDS011;8798;51.938;4.348;2024-02-04T07:15:06;10.93;;;2.83;;
17361;SDS011;8798;51.938;4.348;2024-02-04T07:17:34;6.87;;;2.10;;
17361;SDS011;8798;51.938;4.348;2024-02-04T07:20:02;7.50;;;2.47;;
17361;SDS011;8798;51.938;4.348;2024-02-04T07:22:32;8.33;;;2.63;;
17361;SDS011;8798;51.938;4.348;2024-02-04T07:25:05;11.37;;;2.60;;
17361;SDS011;8798;51.938;4.348;2024-02-04T07:27:34;8.00;;;2.20;;
17361;SDS011;8798;51.938;4.348;2024-02-04T07:30:02;8.60;;;2.33;;
17361;SDS011;8798;51.938;4.348;2024-02-04T07:32:31;8.57;;;2.40;;
17361;SDS011;8798;51.938;4.348;2024-02-04T07:35:01;4.53;;;2.20;;
17361;SDS011;8798;51.938;4.348;2024-02-04T07:37:29;5.57;;;2.20;;
17361;SDS011;8798;51.938;4.348;2024-02-04T07:39:57;7.53;;;2.20;;
17361;SDS011;8798;51.938;4.348;2024-02-04T07:42:26;8.13;;;2.33;;
17361;SDS011;8798;51.938;4.348;2024-02-04T07:44:54;8.80;;;2.20;;
17361;SDS011;8798;51.938;4.348;2024-02-04T07:47:22;8.83;;;2.40;;
17361;SDS011;8798;51.938;4.348;2024-02-04T07:49:50;6.37;;;1.97;;
17361;SDS011;8798;51.938;4.348;2024-02-04T07:52:18;7.10;;;2.00;;
17361;SDS011;8798;51.938;4.348;2024-02-04T07:54:46;7.97;;;2.07;;
17361;SDS011;8798;51.938;4.348;2024-02-04T07:57:14;7.63;;;1.73;;
17361;SDS011;8798;51.938;4.348;2024-02-04T07:59:44;7.37;;;2.00;;
17361;SDS011;8798;51.938;4.348;2024-02-04T08:02:12;5.80;;;1.40;;
17361;SDS011;8798;51.938;4.348;2024-02-04T08:04:40;5.73;;;1.90;;
17361;SDS011;8798;51.938;4.348;2024-02-04T08:07:08;6.53;;;1.80;;
17361;SDS011;8798;51.938;4.348;2024-02-04T08:09:36;6.37;;;1.33;;
17361;SDS011;8798;51.938;4.348;2024-02-04T08:12:05;6.33;;;1.57;;
17361;SDS011;8798;51.938;4.348;2024-02-04T08:14:33;3.70;;;1.20;;
17361;SDS011;8798;51.938;4.348;2024-02-04T08:17:02;5.57;;;1.77;;
17361;SDS011;8798;51.938;4.348;2024-02-04T08:19:30;6.40;;;1.40;;
17361;SDS011;8798;51.938;4.348;2024-02-04T08:21:58;6.13;;;1.23;;
17361;SDS011;8798;51.938;4.348;2024-02-04T08:24:27;9.10;;;1.73;;
17361;SDS011;8798;51.938;4.348;2024-02-04T08:26:56;11.03;;;1.70;;
17361;SDS011;8798;51.938;4.348;2024-02-04T08:29:24;4.23;;;1.30;;
17361;SDS011;8798;51.938;4.348;2024-02-04T08:31:53;7.50;;;1.87;;
17361;SDS011;8798;51.938;4.348;2024-02-04T08:34:22;6.17;;;1.40;;
17361;SDS011;8798;51.938;4.348;2024-02-04T08:36:52;7.77;;;1.50;;
17361;SDS011;8798;51.938;4.348;2024-02-04T08:39:20;5.23;;;1.50;;
17361;SDS011;8798;51.938;4.348;2024-02-04T08:41:49;9.90;;;1.97;;
17361;SDS011;8798;51.938;4.348;2024-02-04T08:44:16;3.87;;;1.33;;
17361;SDS011;8798;51.938;4.348;2024-02-04T08:47:00;8.63;;;1.50;;
17361;SDS011;8798;51.938;4.348;2024-02-04T08:49:30;5.23;;;1.60;;
17361;SDS011;8798;51.938;4.348;2024-02-04T08:51:58;3.93;;;1.50;;
17361;SDS011;8798;51.938;4.348;2024-02-04T08:54:26;7.73;;;1.23;;
17361;SDS011;8798;51.938;4.348;2024-02-04T08:56:54;5.77;;;1.40;;
17361;SDS011;8798;51.938;4.348;2024-02-04T08:59:22;7.57;;;1.40;;
17361;SDS011;8798;51.938;4.348;2024-02-04T09:01:50;6.67;;;1.80;;
17361;SDS011;8798;51.938;4.348;2024-02-04T09:04:19;9.20;;;1.60;;
17361;SDS011;8798;51.938;4.348;2024-02-04T09:06:48;2.63;;;1.07;;
17361;SDS011;8798;51.938;4.348;2024-02-04T09:09:16;2.87;;;0.80;;
17361;SDS011;8798;51.938;4.348;2024-02-04T09:11:44;3.73;;;1.13;;
17361;SDS011;8798;51.938;4.348;2024-02-04T09:14:12;3.17;;;1.17;;
17361;SDS011;8798;51.938;4.348;2024-02-04T09:16:40;7.00;;;1.23;;
17361;SDS011;8798;51.938;4.348;2024-02-04T09:19:08;3.63;;;1.20;;
17361;SDS011;8798;51.938;4.348;2024-02-04T09:21:36;4.73;;;1.53;;
17361;SDS011;8798;51.938;4.348;2024-02-04T09:24:06;7.13;;;1.40;;
17361;SDS011;8798;51.938;4.348;2024-02-04T09:26:34;4.57;;;1.47;;
17361;SDS011;8798;51.938;4.348;2024-02-04T09:29:02;8.27;;;1.30;;
17361;SDS011;8798;51.938;4.348;2024-02-04T09:31:30;8.43;;;1.70;;
17361;SDS011;8798;51.938;4.348;2024-02-04T09:33:58;9.67;;;1.67;;
17361;SDS011;8798;51.938;4.348;2024-02-04T09:36:26;6.50;;;1.40;;
17361;SDS011;8798;51.938;4.348;2024-02-04T09:38:54;6.50;;;1.27;;
17361;SDS011;8798;51.938;4.348;2024-02-04T09:41:24;6.17;;;1.23;;
17361;SDS011;8798;51.938;4.348;2024-02-04T09:43:53;4.97;;;1.40;;
17361;SDS011;8798;51.938;4.348;2024-02-04T09:46:21;5.57;;;1.37;;
17361;SDS011;8798;51.938;4.348;2024-02-04T09:48:50;4.60;;;1.40;;
17361;SDS011;8798;51.938;4.348;2024-02-04T09:51:19;3.93;;;1.40;;
17361;SDS011;8798;51.938;4.348;2024-02-04T09:53:49;4.00;;;1.00;;
17361;SDS011;8798;51.938;4.348;2024-02-04T09:56:20;8.63;;;1.30;;
17361;SDS011;8798;51.938;4.348;2024-02-04T09:58:52;4.37;;;1.20;;
17361;SDS011;8798;51.938;4.348;2024-02-04T10:01:20;6.20;;;1.23;;
17361;SDS011;8798;51.938;4.348;2024-02-04T10:03:51;5.30;;;1.30;;
17361;SDS011;8798;51.938;4.348;2024-02-04T10:06:19;7.30;;;1.20;;
17361;SDS011;8798;51.938;4.348;2024-02-04T10:08:47;2.80;;;1.00;;
17361;SDS011;8798;51.938;4.348;2024-02-04T10:11:15;7.83;;;1.43;;
17361;SDS011;8798;51.938;4.348;2024-02-04T10:13:44;7.73;;;1.37;;
17361;SDS011;8798;51.938;4.348;2024-02-04T10:16:14;11.70;;;1.30;;
17361;SDS011;8798;51.938;4.348;2024-02-04T10:18:43;5.60;;;1.47;;
17361;SDS011;8798;51.938;4.348;2024-02-04T10:21:16;4.27;;;1.13;;
17361;SDS011;8798;51.938;4.348;2024-02-04T10:23:45;5.27;;;1.33;;
17361;SDS011;8798;51.938;4.348;2024-02-04T10:26:13;7.10;;;1.10;;
17361;SDS011;8798;51.938;4.348;2024-02-04T10:28:41;7.63;;;1.60;;
17361;SDS011;8798;51.938;4.348;2024-02-04T10:31:14;7.63;;;1.40;;
17361;SDS011;8798;51.938;4.348;2024-02-04T10:33:43;4.50;;;1.13;;
17361;SDS011;8798;51.938;4.348;2024-02-04T10:36:11;3.20;;;1.17;;
17361;SDS011;8798;51.938;4.348;2024-02-04T10:38:39;4.93;;;1.13;;
17361;SDS011;8798;51.938;4.348;2024-02-04T10:41:07;6.73;;;1.57;;
17361;SDS011;8798;51.938;4.348;2024-02-04T10:43:42;9.43;;;1.13;;
17361;SDS011;8798;51.938;4.348;2024-02-04T10:46:13;6.77;;;1.40;;
17361;SDS011;8798;51.938;4.348;2024-02-04T10:48:48;7.00;;;1.40;;
17361;SDS011;8798;51.938;4.348;2024-02-04T10:51:19;5.80;;;1.30;;
17361;SDS011;8798;51.938;4.348;2024-02-04T10:53:53;5.53;;;1.40;;
17361;SDS011;8798;51.938;4.348;2024-02-04T10:56:25;8.37;;;1.73;;
17361;SDS011;8798;51.938;4.348;2024-02-04T10:58:57;7.07;;;1.63;;
17361;SDS011;8798;51.938;4.348;2024-02-04T11:01:30;6.17;;;1.30;;
17361;SDS011;8798;51.938;4.348;2024-02-04T11:03:58;6.60;;;1.70;;
17361;SDS011;8798;51.938;4.348;2024-02-04T11:06:28;9.33;;;1.60;;
17361;SDS011;8798;51.938;4.348;2024-02-04T11:08:57;6.87;;;2.27;;
17361;SDS011;8798;51.938;4.348;2024-02-04T11:11:27;6.53;;;1.17;;
17361;SDS011;8798;51.938;4.348;2024-02-04T11:13:56;11.63;;;1.60;;
17361;SDS011;8798;51.938;4.348;2024-02-04T11:16:38;6.27;;;1.40;;
17361;SDS011;8798;51.938;4.348;2024-02-04T11:19:20;7.10;;;1.83;;
17361;SDS011;8798;51.938;4.348;2024-02-04T11:22:16;15.43;;;1.87;;
17361;SDS011;8798;51.938;4.348;2024-02-04T11:24:59;7.77;;;1.80;;
17361;SDS011;8798;51.938;4.348;2024-02-04T11:27:41;8.20;;;1.60;;
17361;SDS011;8798;51.938;4.348;2024-02-04T11:30:09;9.63;;;1.90;;
17361;SDS011;8798;51.938;4.348;2024-02-04T11:32:39;9.60;;;1.60;;
17361;SDS011;8798;51.938;4.348;2024-02-04T11:35:09;7.00;;;1.50;;
17361;SDS011;8798;51.938;4.348;2024-02-04T11:37:38;13.63;;;1.70;;
17361;SDS011;8798;51.938;4.348;2024-02-04T11:40:13;9.00;;;1.67;;
17361;SDS011;8798;51.938;4.348;2024-02-04T11:42:42;6.10;;;1.40;;
17361;SDS011;8798;51.938;4.348;2024-02-04T11:45:11;10.50;;;1.90;;
17361;SDS011;8798;51.938;4.348;2024-02-04T11:47:42;8.17;;;1.90;;
17361;SDS011;8798;51.938;4.348;2024-02-04T11:50:10;9.10;;;2.27;;
17361;SDS011;8798;51.938;4.348;2024-02-04T11:52:39;9.17;;;1.93;;
17361;SDS011;8798;51.938;4.348;2024-02-04T11:55:14;8.67;;;1.90;;
17361;SDS011;8798;51.938;4.348;2024-02-04T11:57:44;7.47;;;1.80;;
17361;SDS011;8798;51.938;4.348;2024-02-04T12:00:13;11.77;;;2.07;;
17361;SDS011;8798;51.938;4.348;2024-02-04T12:02:47;7.63;;;1.80;;
17361;SDS011;8798;51.938;4.348;2024-02-04T12:05:15;6.90;;;1.63;;
17361;SDS011;8798;51.938;4.348;2024-02-04T12:07:43;8.53;;;1.90;;
17361;SDS011;8798;51.938;4.348;2024-02-04T12:10:11;9.80;;;1.93;;
17361;SDS011;8798;51.938;4.348;2024-02-04T12:12:39;8.33;;;1.80;;
17361;SDS011;8798;51.938;4.348;2024-02-04T12:15:08;12.30;;;2.20;;
17361;SDS011;8798;51.938;4.348;2024-02-04T12:17:36;8.57;;;1.80;;
17361;SDS011;8798;51.938;4.348;2024-02-04T12:20:07;11.57;;;2.47;;
17361;SDS011;8798;51.938;4.348;2024-02-04T12:22:36;10.57;;;2.47;;
17361;SDS011;8798;51.938;4.348;2024-02-04T12:25:04;10.60;;;2.07;;
17361;SDS011;8798;51.938;4.348;2024-02-04T12:27:33;8.83;;;2.13;;
17361;SDS011;8798;51.938;4.348;2024-02-04T12:30:02;9.90;;;1.93;;
17361;SDS011;8798;51.938;4.348;2024-02-04T12:35:00;14.17;;;2.10;;
17361;SDS011;8798;51.938;4.348;2024-02-04T12:37:30;11.10;;;2.10;;
17361;SDS011;8798;51.938;4.348;2024-02-04T12:40:00;10.13;;;2.33;;
17361;SDS011;8798;51.938;4.348;2024-02-04T12:42:29;13.53;;;2.40;;
17361;SDS011;8798;51.938;4.348;2024-02-04T12:44:57;8.50;;;2.33;;
17361;SDS011;8798;51.938;4.348;2024-02-04T12:47:25;11.90;;;2.10;;
17361;SDS011;8798;51.938;4.348;2024-02-04T12:49:58;13.27;;;1.83;;
17361;SDS011;8798;51.938;4.348;2024-02-04T12:52:30;9.07;;;1.63;;
17361;SDS011;8798;51.938;4.348;2024-02-04T12:55:01;12.43;;;2.03;;
17361;SDS011;8798;51.938;4.348;2024-02-04T12:57:31;11.17;;;2.40;;
17361;SDS011;8798;51.938;4.348;2024-02-04T13:00:05;13.17;;;2.33;;
17361;SDS011;8798;51.938;4.348;2024-02-04T13:02:35;10.67;;;1.80;;
17361;SDS011;8798;51.938;4.348;2024-02-04T13:05:03;10.30;;;1.90;;
17361;SDS011;8798;51.938;4.348;2024-02-04T13:07:33;8.03;;;1.50;;
17361;SDS011;8798;51.938;4.348;2024-02-04T13:10:01;11.93;;;2.10;;
17361;SDS011;8798;51.938;4.348;2024-02-04T13:12:30;8.30;;;1.60;;
17361;SDS011;8798;51.938;4.348;2024-02-04T13:15:00;12.30;;;1.70;;
17361;SDS011;8798;51.938;4.348;2024-02-04T13:17:28;6.27;;;1.57;;
17361;SDS011;8798;51.938;4.348;2024-02-04T13:19:57;5.03;;;1.83;;
17361;SDS011;8798;51.938;4.348;2024-02-04T13:22:26;8.33;;;1.83;;
17361;SDS011;8798;51.938;4.348;2024-02-04T13:24:56;12.23;;;2.27;;
17361;SDS011;8798;51.938;4.348;2024-02-04T13:27:24;8.23;;;2.00;;
17361;SDS011;8798;51.938;4.348;2024-02-04T13:29:53;7.87;;;2.00;;
17361;SDS011;8798;51.938;4.348;2024-02-04T13:32:21;10.17;;;1.90;;
17361;SDS011;8798;51.938;4.348;2024-02-04T13:34:49;9.70;;;1.63;;
17361;SDS011;8798;51.938;4.348;2024-02-04T13:37:35;15.90;;;1.83;;
17361;SDS011;8798;51.938;4.348;2024-02-04T13:40:05;10.20;;;1.90;;
17361;SDS011;8798;51.938;4.348;2024-02-04T13:42:35;10.43;;;1.97;;
17361;SDS011;8798;51.938;4.348;2024-02-04T13:45:03;9.13;;;2.20;;
17361;SDS011;8798;51.938;4.348;2024-02-04T13:47:32;9.43;;;1.60;;
17361;SDS011;8798;51.938;4.348;2024-02-04T13:50:00;7.53;;;1.83;;
17361;SDS011;8798;51.938;4.348;2024-02-04T13:52:30;10.63;;;2.13;;
17361;SDS011;8798;51.938;4.348;2024-02-04T13:54:58;10.77;;;2.10;;
17361;SDS011;8798;51.938;4.348;2024-02-04T13:57:27;10.00;;;2.40;;
17361;SDS011;8798;51.938;4.348;2024-02-04T13:59:55;15.00;;;2.20;;
17361;SDS011;8798;51.938;4.348;2024-02-04T14:02:23;7.17;;;1.80;;
17361;SDS011;8798;51.938;4.348;2024-02-04T14:04:53;15.97;;;2.47;;
17361;SDS011;8798;51.938;4.348;2024-02-04T14:07:21;10.97;;;2.33;;
17361;SDS011;8798;51.938;4.348;2024-02-04T14:09:49;9.00;;;2.00;;
17361;SDS011;8798;51.938;4.348;2024-02-04T14:12:17;9.23;;;1.90;;
17361;SDS011;8798;51.938;4.348;2024-02-04T14:14:47;13.63;;;2.67;;
17361;SDS011;8798;51.938;4.348;2024-02-04T14:17:15;10.27;;;2.67;;
17361;SDS011;8798;51.938;4.348;2024-02-04T14:19:43;12.73;;;2.33;;
17361;SDS011;8798;51.938;4.348;2024-02-04T14:22:15;9.17;;;2.43;;
17361;SDS011;8798;51.938;4.348;2024-02-04T14:24:44;8.37;;;1.83;;
17361;SDS011;8798;51.938;4.348;2024-02-04T14:27:13;12.47;;;2.03;;
17361;SDS011;8798;51.938;4.348;2024-02-04T14:29:41;8.83;;;1.90;;
17361;SDS011;8798;51.938;4.348;2024-02-04T14:32:11;15.13;;;2.80;;
17361;SDS011;8798;51.938;4.348;2024-02-04T14:34:39;15.70;;;3.13;;
17361;SDS011;8798;51.938;4.348;2024-02-04T14:37:07;10.90;;;2.70;;
17361;SDS011;8798;51.938;4.348;2024-02-04T14:39:40;14.83;;;2.83;;
17361;SDS011;8798;51.938;4.348;2024-02-04T14:42:08;12.13;;;2.50;;
17361;SDS011;8798;51.938;4.348;2024-02-04T14:44:36;13.13;;;2.67;;
17361;SDS011;8798;51.938;4.348;2024-02-04T14:47:04;13.47;;;2.67;;
17361;SDS011;8798;51.938;4.348;2024-02-04T14:49:34;19.33;;;2.70;;
17361;SDS011;8798;51.938;4.348;2024-02-04T14:52:03;17.23;;;3.13;;
17361;SDS011;8798;51.938;4.348;2024-02-04T14:54:32;19.50;;;2.87;;
17361;SDS011;8798;51.938;4.348;2024-02-04T14:57:00;13.83;;;3.30;;
17361;SDS011;8798;51.938;4.348;2024-02-04T14:59:28;15.83;;;2.90;;
17361;SDS011;8798;51.938;4.348;2024-02-04T15:01:56;15.97;;;2.90;;
17361;SDS011;8798;51.938;4.348;2024-02-04T15:07:13;16.10;;;2.80;;
17361;SDS011;8798;51.938;4.348;2024-02-04T15:09:41;12.37;;;2.83;;
17361;SDS011;8798;51.938;4.348;2024-02-04T15:12:10;12.33;;;2.87;;